Time;durP1;ratioP1;P1;durP2;ratioP2;P2;SDS_P1;SDS_P2;PMS_P1;PMS_P2;Temp;Humidity;BMP_temperature;BMP_pressure;BME280_temperature;BME280_humidity;BME280_pressure;Samples;Min_cycle;Max_cycle;Signal;HPM_P1;HPM_P2
2022/04/11 00:00:43;;;;;;;8.57;5.30;;;;;;;4.35;72.33;100356.25;1088078;54;20034;-81
2022/04/11 00:01:47;;;;;;;9.50;5.78;;;;;;;4.35;72.22;100350.94;1088213;54;20031;-79
2022/04/11 00:02:49;;;;;;;8.75;5.75;;;;;;;4.35;72.10;100351.81;1088484;47;20034;-79
2022/04/11 00:03:53;;;;;;;9.13;5.60;;;;;;;4.37;72.15;100346.41;1088157;54;20041;-80
2022/04/11 00:04:56;;;;;;;8.00;5.38;;;;;;;4.38;71.90;100350.75;1088207;54;20078;-80
2022/04/11 00:06:00;;;;;;;10.68;5.97;;;;;;;4.31;72.42;100358.25;1087921;54;20114;-81
2022/04/11 00:07:03;;;;;;;10.02;6.47;;;;;;;4.20;72.87;100348.34;1088082;54;20034;-81
2022/04/11 00:08:08;;;;;;;9.80;6.75;;;;;;;4.04;73.27;100347.59;1088253;54;20031;-82
2022/04/11 00:09:10;;;;;;;9.02;6.75;;;;;;;4.03;73.37;100351.19;1088045;54;20034;-82
2022/04/11 00:10:18;;;;;;;10.13;6.15;;;;;;;3.98;73.93;100350.59;1088291;54;20061;-83
2022/04/11 00:11:22;;;;;;;10.50;6.18;;;;;;;4.00;73.67;100346.06;1088384;54;20749;-82
2022/04/11 00:12:30;;;;;;;9.23;6.35;;;;;;;3.86;73.92;100347.81;1087963;54;20018;-82
2022/04/11 00:13:37;;;;;;;9.18;6.22;;;;;;;3.69;74.59;100348.81;1088076;54;20101;-82
2022/04/11 00:14:45;;;;;;;11.85;6.57;;;;;;;3.59;74.81;100343.22;1089299;47;20026;-82
2022/04/11 00:15:50;;;;;;;9.55;6.57;;;;;;;3.48;75.26;100345.69;1088359;54;20018;-82
2022/04/11 00:17:02;;;;;;;11.82;6.75;;;;;;;3.42;75.83;100346.91;1088395;54;20053;-81
2022/04/11 00:18:12;;;;;;;10.27;6.80;;;;;;;3.38;76.11;100350.66;1088385;54;20034;-81
2022/04/11 00:19:19;;;;;;;10.88;7.50;;;;;;;3.37;75.89;100350.75;1088186;54;20026;-81
2022/04/11 06:34:46;;;;;;;9.70;5.82;;;;;;;3.50;72.98;100195.75;1088275;54;20070;-80
2022/04/11 06:35:48;;;;;;;10.13;5.43;;;;;;;3.63;72.90;100189.69;1088280;54;20039;-79
2022/04/11 06:36:52;;;;;;;10.15;5.20;;;;;;;3.73;72.66;100198.75;1088292;54;20024;-80
2022/04/11 06:37:56;;;;;;;11.77;5.60;;;;;;;3.84;72.66;100193.63;1088282;54;20019;-80
2022/04/11 06:38:58;;;;;;;10.10;5.18;;;;;;;3.90;72.34;100197.69;1088349;54;20030;-82
2022/04/11 06:40:02;;;;;;;8.82;5.03;;;;;;;3.99;72.54;100201.50;1090202;39;20652;-80
2022/04/11 06:41:07;;;;;;;9.15;5.70;;;;;;;4.02;72.51;100196.03;1088327;54;20035;-79
2022/04/11 06:42:09;;;;;;;9.63;5.35;;;;;;;4.05;72.22;100195.84;1088093;54;20054;-80
2022/04/11 06:43:14;;;;;;;9.93;5.93;;;;;;;4.09;71.89;100193.84;1088003;54;20049;-80
2022/04/11 06:44:15;;;;;;;9.93;6.03;;;;;;;4.11;71.62;100206.03;1088355;54;20015;-80
2022/04/11 06:45:21;;;;;;;12.35;6.15;;;;;;;4.09;71.53;100197.34;1088283;54;20120;-80
2022/04/11 06:46:23;;;;;;;11.48;5.80;;;;;;;4.20;71.57;100194.84;1088308;54;20034;-81
2022/04/11 06:47:27;;;;;;;7.82;5.30;;;;;;;4.31;71.55;100191.47;1090499;46;20030;-81
2022/04/11 06:48:30;;;;;;;11.63;6.10;;;;;;;4.40;71.06;100189.19;1088329;54;20041;-80
2022/04/11 06:49:34;;;;;;;11.00;7.22;;;;;;;4.44;70.74;100194.16;1088366;54;20022;-80
2022/04/11 06:50:38;;;;;;;11.13;7.40;;;;;;;4.42;70.45;100188.16;1088291;54;20018;-80
2022/04/11 06:51:43;;;;;;;14.07;7.22;;;;;;;4.37;70.63;100191.09;1091755;39;20681;-81
2022/04/11 06:52:44;;;;;;;10.88;6.85;;;;;;;4.32;70.50;100195.84;1088185;54;20062;-81
2022/04/11 06:53:51;;;;;;;12.63;6.80;;;;;;;4.42;70.43;100189.94;1088298;54;20038;-81
2022/04/11 06:54:52;;;;;;;8.57;5.55;;;;;;;4.58;70.27;100192.41;1088097;54;20042;-81
2022/04/11 06:55:56;;;;;;;8.98;5.63;;;;;;;4.61;69.57;100186.91;1088325;54;20082;-80
2022/04/11 06:57:01;;;;;;;8.80;5.82;;;;;;;4.64;69.38;100187.56;1088091;54;20038;-80
2022/04/11 06:58:05;;;;;;;8.82;5.63;;;;;;;4.71;69.26;100192.44;1088323;54;20018;-80
2022/04/11 06:59:09;;;;;;;9.02;5.78;;;;;;;4.77;69.31;100182.28;1088030;54;20038;-79
2022/04/11 07:00:11;;;;;;;9.20;4.85;;;;;;;4.83;69.13;100186.31;1087972;54;20035;-80
2022/04/11 07:01:17;;;;;;;8.70;5.30;;;;;;;4.85;69.19;100181.75;1088094;54;20019;-80
2022/04/11 07:02:19;;;;;;;8.82;5.40;;;;;;;4.89;69.02;100183.22;1088116;54;20095;-80
2022/04/11 07:03:24;;;;;;;10.43;4.60;;;;;;;5.01;69.00;100184.19;1087922;54;20034;-80
2022/04/11 07:04:25;;;;;;;8.10;4.35;;;;;;;5.10;68.94;100185.38;1088428;46;20030;-80
2022/04/11 07:05:29;;;;;;;8.25;4.88;;;;;;;5.14;68.46;100176.25;1087958;54;20193;-79
2022/04/11 07:06:33;;;;;;;7.43;4.30;;;;;;;5.15;68.21;100178.78;1088201;54;20063;-81
2022/04/11 07:07:46;;;;;;;9.98;4.90;;;;;;;5.24;67.99;100179.09;1088287;54;20090;-80
2022/04/11 07:08:47;;;;;;;7.03;4.45;;;;;;;5.33;68.05;100177.63;1088410;46;20026;-79
2022/04/11 07:09:52;;;;;;;8.20;4.90;;;;;;;5.31;67.94;100175.06;1090454;46;20022;-80
2022/04/11 07:10:56;;;;;;;9.27;5.07;;;;;;;5.38;67.66;100176.34;1088272;54;20059;-81
2022/04/11 07:11:59;;;;;;;10.45;4.65;;;;;;;5.42;67.49;100175.16;1088360;54;20063;-79
2022/04/11 07:13:04;;;;;;;7.25;4.72;;;;;;;5.49;67.51;100174.72;1088200;54;20034;-80
2022/04/11 07:14:11;;;;;;;7.10;4.70;;;;;;;5.54;67.35;100170.78;1088333;54;20050;-80
2022/04/11 07:15:15;;;;;;;7.35;4.70;;;;;;;5.58;67.12;100169.63;1088377;54;20025;-80
2022/04/11 07:16:18;;;;;;;6.63;4.70;;;;;;;5.61;66.94;100174.72;1088360;54;20039;-81
2022/04/11 07:17:22;;;;;;;8.60;4.60;;;;;;;5.63;66.82;100174.59;1088487;54;20034;-80
2022/04/11 07:18:27;;;;;;;9.23;4.60;;;;;;;5.72;66.80;100181.91;1089647;46;20027;-80
2022/04/11 07:19:31;;;;;;;9.75;5.15;;;;;;;5.74;66.44;100174.69;1093389;46;20024;-81
2022/04/11 07:20:51;;;;;;;8.90;4.82;;;;;;;5.77;65.52;100177.09;1088448;54;20038;-80
2022/04/11 07:21:55;;;;;;;8.70;5.50;;;;;;;5.81;66.07;100177.72;1095602;46;20062;-80
2022/04/11 07:23:02;;;;;;;9.25;4.78;;;;;;;5.89;65.90;100185.13;1090775;46;20038;-81
2022/04/11 07:24:04;;;;;;;10.57;4.70;;;;;;;5.96;66.12;100181.06;1088667;46;20040;-81
2022/04/11 07:25:10;;;;;;;9.25;5.30;;;;;;;6.04;65.83;100180.53;1089058;46;20018;-79
2022/04/11 07:26:13;;;;;;;11.55;5.40;;;;;;;6.02;66.04;100175.34;1088476;54;20037;-79
2022/04/11 07:27:17;;;;;;;13.95;5.90;;;;;;;6.02;66.19;100174.50;1088467;54;20036;-81
2022/04/11 07:28:25;;;;;;;9.95;5.85;;;;;;;6.06;65.23;100171.50;1088479;54;20034;-81
2022/04/11 07:29:29;;;;;;;12.13;7.03;;;;;;;6.07;65.79;100173.19;1088758;46;20106;-79
2022/04/11 07:30:33;;;;;;;11.98;6.28;;;;;;;6.15;65.79;100171.78;1088684;46;20021;-80
2022/04/11 07:31:38;;;;;;;8.95;5.63;;;;;;;6.31;65.46;100169.72;1088310;54;20034;-81
2022/04/11 07:32:40;;;;;;;9.77;5.38;;;;;;;6.41;65.25;100172.50;1088321;54;20054;-78
2022/04/11 07:33:44;;;;;;;12.57;5.30;;;;;;;6.56;65.03;100166.03;1089726;46;20030;-82
2022/04/11 07:34:47;;;;;;;10.43;5.78;;;;;;;6.62;64.64;100164.72;1088369;54;20022;-81
2022/04/11 07:35:58;;;;;;;10.57;5.60;;;;;;;6.67;64.40;100159.94;1088334;54;20074;-81
2022/04/11 07:37:02;;;;;;;;;;;;;;;6.71;63.56;100160.53;1088464;54;20030;-81
2022/04/11 07:38:06;;;;;;;18.10;7.25;;;;;;;6.84;64.07;100157.78;1092080;46;19949;-80
2022/04/11 07:39:07;;;;;;;15.73;6.13;;;;;;;6.98;63.94;100160.25;1088142;54;20042;-80
2022/04/11 07:40:13;;;;;;;11.70;5.72;;;;;;;7.12;63.77;100158.28;1088736;46;20078;-79
2022/04/11 07:41:15;;;;;;;9.52;4.75;;;;;;;7.31;63.36;100157.72;1088292;54;20631;-80
2022/04/11 07:42:20;;;;;;;13.48;5.80;;;;;;;7.41;62.52;100157.81;1088334;54;20019;-79
2022/04/11 07:43:23;;;;;;;13.82;5.55;;;;;;;7.61;62.78;100153.56;1088282;54;20027;-80
2022/04/11 07:44:27;;;;;;;12.50;5.05;;;;;;;7.70;62.46;100159.97;1099995;39;20590;-79
2022/04/11 07:45:31;;;;;;;12.98;5.10;;;;;;;7.79;62.20;100151.25;1088284;54;20030;-79
2022/04/11 07:46:35;;;;;;;9.77;5.32;;;;;;;7.78;62.16;100157.53;1088354;54;20023;-80
2022/04/11 07:47:37;;;;;;;17.00;5.22;;;;;;;7.83;61.86;100152.69;1088308;54;20022;-78
2022/04/11 07:48:42;;;;;;;10.93;5.97;;;;;;;8.02;61.42;100145.88;1088270;54;20019;-80
2022/04/11 07:49:44;;;;;;;11.23;5.38;;;;;;;8.15;61.36;100146.53;1088245;54;20038;-81
2022/04/11 07:50:48;;;;;;;10.68;5.88;;;;;;;8.21;61.00;100148.72;1088323;54;20049;-81
2022/04/11 07:51:50;;;;;;;10.48;5.43;;;;;;;8.42;60.61;100145.22;1088285;54;20035;-79
2022/04/11 07:52:57;;;;;;;11.70;5.47;;;;;;;8.57;60.17;100146.63;1088227;54;20034;-80
2022/04/11 07:53:58;;;;;;;10.77;4.75;;;;;;;8.81;59.74;100136.69;1088181;54;20042;-80
2022/04/11 07:55:03;;;;;;;8.90;4.90;;;;;;;8.87;59.31;100136.16;1087968;54;20037;-79
2022/04/11 07:56:04;;;;;;;9.30;4.97;;;;;;;9.06;59.15;100140.75;1091136;46;20058;-80
2022/04/11 07:57:09;;;;;;;11.38;5.18;;;;;;;9.06;58.92;100138.09;1088283;54;20039;-79
2022/04/11 07:58:15;;;;;;;16.35;6.05;;;;;;;9.07;58.82;100136.25;1088295;54;20038;-80
2022/04/11 07:59:19;;;;;;;9.20;4.90;;;;;;;9.35;58.04;100132.88;1091028;47;20770;-81
2022/04/11 08:00:24;;;;;;;7.72;5.35;;;;;;;9.60;57.58;100138.69;1088262;54;20026;-79
2022/04/11 08:01:28;;;;;;;16.33;5.75;;;;;;;9.64;57.56;100133.94;1088293;54;20034;-80
2022/04/11 08:02:32;;;;;;;10.52;5.32;;;;;;;9.76;56.95;100137.34;1088955;47;20776;-78
2022/04/11 08:03:34;;;;;;;11.25;5.30;;;;;;;9.87;56.75;100131.03;1088267;54;20022;-80
2022/04/11 08:04:38;;;;;;;12.15;5.00;;;;;;;9.92;56.50;100139.50;1088391;54;20042;-80
2022/04/11 08:05:42;;;;;;;10.63;5.30;;;;;;;10.01;56.07;100140.47;1088815;47;20023;-80
2022/04/11 08:06:46;;;;;;;9.23;5.32;;;;;;;10.10;55.61;100132.50;1088329;54;20018;-80
2022/04/11 08:07:48;;;;;;;14.70;5.47;;;;;;;10.26;55.36;100131.91;1088597;47;20034;-80
2022/04/11 08:08:55;;;;;;;9.10;5.22;;;;;;;10.57;54.63;100130.97;1088212;54;20787;-79
2022/04/11 08:09:57;;;;;;;9.77;4.28;;;;;;;10.87;54.00;100131.72;1088057;54;20745;-79
2022/04/11 08:11:01;;;;;;;10.23;4.78;;;;;;;11.01;53.87;100131.28;1088136;54;20031;-81
2022/04/11 08:12:03;;;;;;;9.07;4.40;;;;;;;11.21;53.20;100123.19;1087937;54;20722;-79
2022/04/11 08:13:09;;;;;;;10.32;5.45;;;;;;;11.12;52.88;100132.09;1088104;54;20023;-81
2022/04/11 08:14:13;;;;;;;8.80;4.47;;;;;;;11.22;52.65;100124.88;1088140;54;20816;-79
2022/04/11 08:15:17;;;;;;;7.50;4.43;;;;;;;11.42;52.26;100120.25;1088144;54;20030;-80
2022/04/11 08:16:21;;;;;;;7.80;4.65;;;;;;;11.39;52.31;100118.72;1088199;54;20030;-80
2022/04/11 08:17:22;;;;;;;9.40;4.60;;;;;;;11.27;52.46;100124.44;1088258;54;20034;-80
2022/04/11 08:18:26;;;;;;;8.93;4.47;;;;;;;11.39;51.97;100120.53;1088189;54;20011;-79
2022/04/11 08:19:28;;;;;;;9.05;4.40;;;;;;;11.46;51.80;100126.16;1088183;54;20026;-79
2022/04/11 08:20:33;;;;;;;13.10;3.80;;;;;;;11.58;51.63;100124.13;1088208;54;20042;-80
2022/04/11 08:21:37;;;;;;;10.18;4.47;;;;;;;11.66;50.45;100126.91;1088262;54;20034;-80
2022/04/11 08:22:41;;;;;;;11.77;4.57;;;;;;;11.64;50.78;100120.84;1088101;54;20027;-80
2022/04/11 08:23:45;;;;;;;15.70;4.53;;;;;;;11.21;50.78;100128.53;1088165;54;20038;-80
2022/04/11 08:24:49;;;;;;;7.32;3.83;;;;;;;11.31;50.39;100118.63;1091397;47;20058;-82
2022/04/11 08:25:54;;;;;;;8.50;4.30;;;;;;;11.49;50.34;100117.84;1088135;54;20038;-80
2022/04/11 08:26:58;;;;;;;13.65;3.90;;;;;;;11.71;50.31;100117.41;1088169;54;20040;-80
2022/04/11 08:28:03;;;;;;;8.10;4.03;;;;;;;11.76;50.17;100122.31;1087821;54;20046;-80
2022/04/11 08:29:04;;;;;;;9.90;4.00;;;;;;;11.89;49.87;100111.25;1088040;54;20029;-80
2022/04/11 08:30:12;;;;;;;13.95;4.18;;;;;;;12.04;49.08;100108.06;1089081;47;20697;-79
2022/04/11 08:31:17;;;;;;;5.95;3.80;;;;;;;12.00;49.33;100107.53;1088157;54;20720;-80
2022/04/11 08:32:21;;;;;;;8.10;4.00;;;;;;;11.95;49.10;100109.81;1088161;54;20737;-81
2022/04/11 08:33:22;;;;;;;8.57;3.80;;;;;;;11.99;48.61;100101.34;1088606;47;20960;-80
2022/04/11 08:34:26;;;;;;;11.25;3.65;;;;;;;12.16;48.53;100106.84;1087713;54;20034;-80
2022/04/11 08:35:28;;;;;;;9.77;3.75;;;;;;;12.45;47.88;100097.72;1088104;54;20026;-80
2022/04/11 08:36:32;;;;;;;5.50;3.20;;;;;;;12.52;47.79;100101.44;1088089;54;20057;-79
2022/04/11 08:37:37;;;;;;;8.35;3.28;;;;;;;12.67;47.40;100092.81;1091587;39;20600;-80
2022/04/11 08:38:41;;;;;;;5.97;2.92;;;;;;;13.06;46.71;100092.38;1088135;54;20034;-79
2022/04/11 08:39:42;;;;;;;6.80;3.42;;;;;;;13.12;46.64;100097.13;1088113;54;20029;-80
2022/04/11 08:40:52;;;;;;;8.13;3.85;;;;;;;13.09;45.43;100092.91;1088053;54;20014;-80
2022/04/11 08:41:59;;;;;;;6.20;3.28;;;;;;;13.12;45.64;100091.75;1091042;39;20747;-80
2022/04/11 08:43:04;;;;;;;7.55;3.38;;;;;;;13.35;45.89;100086.66;1088116;54;20042;-79
2022/04/11 08:44:09;;;;;;;6.78;2.97;;;;;;;13.66;45.56;100086.09;1089460;47;20030;-79
2022/04/11 08:45:13;;;;;;;11.10;3.67;;;;;;;13.66;43.62;100087.97;1087828;54;20034;-79
2022/04/11 08:46:20;;;;;;;7.85;3.72;;;;;;;13.74;43.78;100090.66;1089639;39;20677;-80
2022/04/11 08:47:22;;;;;;;6.93;2.92;;;;;;;13.91;43.61;100079.94;1088105;54;20061;-80
2022/04/11 08:48:26;;;;;;;6.00;3.63;;;;;;;13.49;43.69;100093.28;1088148;54;20022;-80
2022/04/11 08:49:29;;;;;;;8.20;3.47;;;;;;;13.50;43.89;100083.38;1088765;47;20018;-80
2022/04/11 08:50:33;;;;;;;6.60;3.50;;;;;;;13.57;43.82;100082.56;1088442;54;20082;-79
2022/04/11 08:51:36;;;;;;;6.75;3.25;;;;;;;13.53;43.69;100083.06;1088504;54;20025;-79
2022/04/11 08:52:41;;;;;;;9.40;3.20;;;;;;;13.89;43.32;100085.47;1088449;54;20034;-79
2022/04/11 08:53:43;;;;;;;5.45;2.72;;;;;;;14.22;42.73;100081.97;1088380;54;20086;-78
2022/04/11 08:54:49;;;;;;;7.25;3.03;;;;;;;14.15;42.69;100079.97;1088468;54;20022;-79
2022/04/11 08:55:56;;;;;;;8.13;3.10;;;;;;;14.06;42.06;100075.59;1088428;54;20974;-78
2022/04/11 08:57:00;;;;;;;6.50;3.28;;;;;;;14.02;42.68;100080.47;1088492;54;20760;-79
2022/04/11 08:58:01;;;;;;;6.07;3.15;;;;;;;14.20;42.51;100077.63;1088487;54;20030;-79
2022/04/11 08:59:06;;;;;;;8.88;3.63;;;;;;;14.35;42.36;100077.78;1088495;54;20026;-78
2022/04/11 09:00:10;;;;;;;5.95;3.25;;;;;;;14.34;41.88;100077.97;1088514;54;20074;-79
2022/04/11 09:01:14;;;;;;;6.95;3.20;;;;;;;14.23;42.13;100075.59;1088172;54;20058;-79
2022/04/11 09:02:20;;;;;;;8.63;3.13;;;;;;;14.33;41.53;100076.28;1088302;54;20669;-79
2022/04/11 09:03:22;;;;;;;8.30;3.80;;;;;;;14.28;40.33;100070.53;1088440;54;20046;-80
2022/04/11 09:04:26;;;;;;;9.20;3.90;;;;;;;14.19;40.81;100073.25;1088431;54;20041;-79
2022/04/11 09:05:29;;;;;;;9.07;3.60;;;;;;;14.17;40.74;100074.41;1088456;54;20035;-79
2022/04/11 09:06:35;;;;;;;7.65;3.38;;;;;;;14.36;40.94;100073.22;1088488;54;20042;-79
2022/04/11 09:07:45;;;;;;;5.70;3.30;;;;;;;14.50;39.87;100061.81;1088495;54;20133;-79
2022/04/11 09:08:54;;;;;;;7.43;3.00;;;;;;;14.67;39.37;100064.50;1088461;54;20017;-78
2022/04/11 09:09:59;;;;;;;5.13;2.22;;;;;;;14.98;39.63;100064.56;1088412;54;20035;-80
2022/04/11 09:11:07;;;;;;;7.93;3.22;;;;;;;14.40;39.13;100063.81;1088487;54;20041;-80
2022/04/11 09:12:10;;;;;;;8.52;3.53;;;;;;;14.38;40.44;100065.00;1089928;39;20665;-78
2022/04/11 09:13:15;;;;;;;9.00;3.20;;;;;;;14.44;40.38;100056.25;1088411;54;20042;-78
2022/04/11 09:14:19;;;;;;;6.25;2.53;;;;;;;14.74;40.16;100052.03;1088421;54;20042;-80
2022/04/11 09:15:25;;;;;;;5.72;2.92;;;;;;;15.07;39.77;100054.63;1088431;54;20045;-79
2022/04/11 09:16:29;;;;;;;17.58;10.55;;;;;;;15.01;38.31;100057.16;1088379;54;20107;-80
2022/04/11 09:17:41;;;;;;;11.63;6.45;;;;;;;14.55;37.42;100045.16;1088067;54;20046;-78
2022/04/11 09:18:51;;;;;;;17.05;10.85;;;;;;;14.50;37.95;100048.34;1088264;54;20026;-78
2022/04/11 09:20:10;;;;;;;12.30;6.15;;;;;;;14.36;37.70;100049.03;1088350;54;20018;-79
2022/04/11 09:21:14;;;;;;;13.05;4.18;;;;;;;14.20;38.45;100048.03;1089049;46;20023;-80
2022/04/11 09:22:31;;;;;;;7.78;3.63;;;;;;;13.95;37.48;100049.06;1088976;46;20030;-80
2022/04/11 09:23:35;;;;;;;10.35;2.90;;;;;;;13.77;38.39;100052.72;1088429;54;20041;-80
2022/04/11 09:24:40;;;;;;;8.75;3.33;;;;;;;13.70;38.51;100051.69;1088475;54;20050;-79
2022/04/11 09:25:44;;;;;;;8.27;3.10;;;;;;;13.63;38.78;100056.03;1088423;54;20029;-81
2022/04/11 09:26:51;;;;;;;8.93;2.95;;;;;;;13.65;38.39;100048.66;1088468;54;20030;-79
2022/04/11 09:28:08;;;;;;;8.73;3.00;;;;;;;13.70;37.39;100051.69;1088482;54;20031;-78
2022/04/11 09:29:10;;;;;;;7.18;2.70;;;;;;;13.84;38.50;100053.75;1088383;54;20026;-79
2022/04/11 09:30:22;;;;;;;8.02;3.25;;;;;;;14.00;38.06;100044.84;1088356;54;20042;-79
2022/04/11 09:31:24;;;;;;;6.55;2.70;;;;;;;14.26;37.89;100041.16;1088412;54;20034;-79
2022/04/11 09:32:29;;;;;;;7.45;2.95;;;;;;;14.33;37.39;100031.38;1088435;54;20025;-79
2022/04/11 09:33:37;;;;;;;8.00;2.90;;;;;;;14.45;37.22;100029.19;1088249;54;20046;-78
2022/04/11 09:34:41;;;;;;;5.38;2.88;;;;;;;14.59;37.55;100026.81;1087875;54;20035;-78
2022/04/11 09:35:46;;;;;;;5.32;2.72;;;;;;;14.85;37.42;100031.16;1088339;54;20054;-78
2022/04/11 09:36:52;;;;;;;5.68;2.20;;;;;;;15.11;37.16;100029.03;1088408;54;20031;-77
2022/04/11 09:38:13;;;;;;;8.38;3.35;;;;;;;14.88;36.30;100025.44;1091384;39;20567;-79
2022/04/11 09:39:19;;;;;;;6.43;3.25;;;;;;;15.13;36.58;100032.38;1088271;54;20037;-78
2022/04/11 09:40:24;;;;;;;7.22;3.35;;;;;;;15.13;36.80;100034.25;1088341;54;20034;-80
2022/04/11 09:41:34;;;;;;;6.63;2.88;;;;;;;15.55;36.65;100029.50;1088298;54;20107;-80
2022/04/11 09:42:41;;;;;;;5.50;2.95;;;;;;;15.40;36.74;100032.09;1088400;54;20623;-79
2022/04/11 09:43:45;;;;;;;7.28;3.00;;;;;;;15.59;36.86;100020.00;1088368;54;20011;-79
2022/04/11 09:44:46;;;;;;;7.80;2.53;;;;;;;15.76;36.51;100026.16;1088452;54;20949;-80
2022/04/11 09:45:52;;;;;;;12.27;3.42;;;;;;;15.95;35.93;100024.88;1088417;54;20363;-79
2022/04/11 09:46:55;;;;;;;6.50;2.80;;;;;;;15.98;35.65;100013.72;1088412;54;20042;-79
2022/04/11 09:48:03;;;;;;;8.70;2.80;;;;;;;16.13;35.41;100021.00;1088431;54;20034;-79
2022/04/11 09:49:09;;;;;;;5.50;2.75;;;;;;;16.04;35.10;100018.41;1088376;54;20038;-78
2022/04/11 09:50:11;;;;;;;7.47;2.80;;;;;;;15.87;35.20;100019.53;1088150;54;20065;-79
2022/04/11 09:51:16;;;;;;;6.90;2.63;;;;;;;15.96;35.10;100013.06;1088136;54;20067;-79
2022/04/11 09:52:19;;;;;;;4.43;2.35;;;;;;;15.97;35.47;100012.03;1088320;54;20740;-79
2022/04/11 09:53:24;;;;;;;4.97;2.10;;;;;;;16.21;35.02;100007.47;1088367;54;20014;-79
2022/04/11 09:54:26;;;;;;;4.43;2.08;;;;;;;16.34;35.08;99999.56;1088364;54;20026;-79
2022/04/11 09:55:31;;;;;;;4.78;2.28;;;;;;;16.52;34.65;99996.53;1088294;54;20034;-79
2022/04/11 09:56:35;;;;;;;6.82;2.30;;;;;;;16.49;34.55;99998.75;1088271;54;20715;-79
2022/04/11 09:57:50;;;;;;;4.75;2.30;;;;;;;16.04;33.80;100004.91;1088319;54;20632;-78
2022/04/11 09:58:55;;;;;;;9.15;2.72;;;;;;;15.42;35.40;100001.28;1088443;54;20041;-79
2022/04/11 10:00:00;;;;;;;3.75;1.80;;;;;;;16.01;34.75;99996.34;1088387;54;20721;-80
2022/04/11 10:01:06;;;;;;;5.40;2.05;;;;;;;16.21;34.20;99994.78;1088168;54;20111;-79
2022/04/11 10:02:10;;;;;;;7.22;2.42;;;;;;;15.88;34.87;99988.84;1088418;54;20039;-80
2022/04/11 10:03:15;;;;;;;5.07;2.25;;;;;;;16.17;34.41;99992.66;1088478;54;20018;-80
2022/04/11 10:04:18;;;;;;;5.03;1.80;;;;;;;16.43;34.17;99986.84;1088442;54;20031;-79
2022/04/11 10:05:22;;;;;;;5.85;2.15;;;;;;;16.55;33.96;99981.81;1088422;54;20026;-79
2022/04/11 10:06:26;;;;;;;5.55;1.90;;;;;;;16.68;33.56;99987.41;1088356;54;20051;-80
2022/04/11 10:07:28;;;;;;;4.05;1.73;;;;;;;16.78;33.38;99994.38;1088000;54;20037;-78
2022/04/11 10:08:35;;;;;;;6.03;2.50;;;;;;;16.18;34.02;99984.41;1088156;46;20034;-79
2022/04/11 10:09:39;;;;;;;5.55;2.00;;;;;;;16.25;33.84;99997.97;1088250;54;20769;-80
2022/04/11 10:10:45;;;;;;;13.68;3.17;;;;;;;16.24;34.15;99995.47;1088303;54;20029;-80
2022/04/11 10:11:47;;;;;;;3.95;1.63;;;;;;;16.12;34.31;99998.59;1088232;54;20030;-79
2022/04/11 10:12:54;;;;;;;5.20;2.10;;;;;;;16.27;32.47;99990.53;1088269;54;20643;-80
2022/04/11 10:13:59;;;;;;;8.07;2.20;;;;;;;15.92;32.54;99986.66;1088289;54;20031;-80
2022/04/11 10:15:02;;;;;;;6.20;2.10;;;;;;;15.71;33.07;99986.25;1088068;54;20039;-80
2022/04/11 10:16:08;;;;;;;4.57;2.03;;;;;;;15.95;33.10;99987.13;1088289;54;20070;-79
2022/04/11 10:17:09;;;;;;;4.30;1.83;;;;;;;15.90;32.92;99984.97;1088267;54;20049;-80
2022/04/11 10:18:17;;;;;;;7.65;2.03;;;;;;;15.80;32.19;99981.66;1089258;46;20019;-78
2022/04/11 10:19:24;;;;;;;7.38;2.00;;;;;;;15.62;32.33;99978.44;1088131;54;20057;-79
2022/04/11 10:20:29;;;;;;;10.48;5.13;;;;;;;15.48;33.03;99985.44;1088107;54;20118;-79
2022/04/11 10:21:32;;;;;;;13.27;7.97;;;;;;;15.54;32.98;99980.13;1088176;54;20037;-79
2022/04/11 10:22:42;;;;;;;9.05;6.22;;;;;;;15.82;32.86;99974.22;1088151;54;20038;-78
2022/04/11 10:23:50;;;;;;;;;;;;;;;15.83;32.76;99985.84;1087974;54;20667;-80
2022/04/11 10:25:06;;;;;;;8.80;3.97;;;;;;;16.26;32.22;99961.88;1089499;31;20522;-80
2022/04/11 10:26:14;;;;;;;7.65;3.10;;;;;;;16.38;32.59;99960.41;1087676;54;20038;-78
2022/04/11 10:27:22;;;;;;;5.63;2.90;;;;;;;16.83;32.11;99954.16;1088075;54;20030;-78
2022/04/11 10:28:27;;;;;;;5.03;2.22;;;;;;;16.96;31.74;99951.66;1088220;54;20058;-78
2022/04/11 10:29:36;;;;;;;7.25;3.13;;;;;;;17.02;31.10;99951.94;1088241;54;20041;-79
2022/04/11 10:30:39;;;;;;;5.15;2.30;;;;;;;17.11;31.21;99950.78;1088152;54;20034;-80
2022/04/11 10:31:43;;;;;;;5.30;2.03;;;;;;;17.12;31.52;99955.16;1088165;54;20057;-79
2022/04/11 10:32:54;;;;;;;5.80;1.73;;;;;;;17.02;30.73;99958.19;1088098;54;20019;-80
2022/04/11 10:33:59;;;;;;;5.88;2.08;;;;;;;17.31;31.17;99965.34;1088605;39;20492;-79
2022/04/11 10:35:02;;;;;;;4.65;2.00;;;;;;;17.20;31.39;99965.03;1087757;54;20090;-78
2022/04/11 10:36:06;;;;;;;4.00;1.83;;;;;;;17.39;30.92;99958.16;1088125;47;20050;-79
2022/04/11 10:37:11;;;;;;;3.47;1.58;;;;;;;17.73;30.54;99957.47;1087983;54;20041;-80
2022/04/11 10:38:18;;;;;;;4.32;1.88;;;;;;;17.91;30.36;99954.31;1088422;54;20031;-79
2022/04/11 10:39:24;;;;;;;3.30;1.30;;;;;;;17.83;29.30;99950.88;1088498;54;20118;-79
2022/04/11 10:40:30;;;;;;;4.60;1.60;;;;;;;17.14;29.66;99953.13;1087818;54;20631;-79
2022/04/11 10:42:12;;;;;;;6.00;1.75;;;;;;;16.88;29.30;99949.06;1087808;54;20041;-79
2022/04/11 10:43:18;;;;;;;6.03;1.70;;;;;;;16.96;30.38;99951.66;1086697;54;20061;-78
2022/04/11 10:44:36;;;;;;;4.28;1.58;;;;;;;17.34;29.78;99949.81;1087786;54;20022;-79
2022/04/11 10:45:42;;;;;;;3.80;1.50;;;;;;;16.81;30.02;99940.84;1087821;54;20026;-79
2022/04/11 10:47:16;;;;;;;4.32;1.83;;;;;;;16.78;29.83;99945.81;1087913;54;20034;-79
2022/04/11 10:48:24;;;;;;;4.72;1.85;;;;;;;17.25;30.36;99941.81;1087593;54;20049;-78
2022/04/11 10:49:26;;;;;;;5.13;2.08;;;;;;;16.88;30.22;99943.66;1087723;54;20057;-79
2022/04/11 10:50:35;;;;;;;4.53;1.50;;;;;;;17.33;29.88;99940.03;1087947;54;20026;-80
2022/04/11 10:51:38;;;;;;;5.38;2.00;;;;;;;17.58;29.59;99944.00;1087962;54;20045;-79
2022/04/11 10:52:42;;;;;;;3.80;1.40;;;;;;;17.63;29.36;99938.03;1087913;54;20026;-78
2022/04/11 10:54:26;;;;;;;3.97;1.50;;;;;;;17.78;28.41;99933.41;1087908;54;20117;-78
2022/04/11 10:55:28;;;;;;;5.95;1.65;;;;;;;17.42;29.71;99933.47;1087773;54;20029;-79
2022/04/11 10:56:53;;;;;;;3.88;1.40;;;;;;;17.72;29.07;99927.94;1092082;39;20674;-79
2022/04/11 10:57:56;;;;;;;3.33;1.52;;;;;;;17.89;29.52;99928.50;1086910;54;20983;-78
2022/04/11 10:59:00;;;;;;;3.30;1.38;;;;;;;17.79;29.48;99926.13;1088588;46;20034;-78
2022/04/11 11:00:08;;;;;;;3.90;1.20;;;;;;;17.82;28.64;99923.03;1087862;47;20034;-79
2022/04/11 11:01:13;;;;;;;3.20;1.30;;;;;;;17.90;29.49;99920.19;1088138;54;20019;-80
2022/04/11 11:02:15;;;;;;;3.92;1.17;;;;;;;17.92;29.25;99915.41;1088049;54;20038;-79
2022/04/11 11:03:20;;;;;;;2.70;1.10;;;;;;;17.77;29.28;99922.75;1088030;39;20449;-79
2022/04/11 11:04:23;;;;;;;3.55;1.20;;;;;;;17.60;29.97;99912.22;1087066;54;20661;-79
2022/04/11 11:05:27;;;;;;;3.95;1.50;;;;;;;17.00;30.13;99917.03;1087099;54;20043;-78
2022/04/11 11:06:31;;;;;;;3.40;1.50;;;;;;;16.57;30.96;99924.97;1087233;54;20038;-78
2022/04/11 11:07:33;;;;;;;3.65;1.40;;;;;;;16.85;30.76;99919.72;1087997;54;20042;-79
2022/04/11 11:08:37;;;;;;;3.72;1.58;;;;;;;16.89;30.46;99917.47;1087984;54;20142;-80
2022/04/11 11:09:39;;;;;;;5.32;1.58;;;;;;;16.66;30.66;99913.88;1087830;54;20042;-78
2022/04/11 11:10:46;;;;;;;3.58;1.40;;;;;;;16.64;30.56;99910.53;1087881;54;20099;-78
2022/04/11 11:11:50;;;;;;;4.45;1.80;;;;;;;16.62;30.67;99912.59;1087946;54;20035;-80
2022/04/11 11:12:51;;;;;;;3.50;1.35;;;;;;;16.36;30.77;99900.41;1087584;54;20701;-78
2022/04/11 11:13:58;;;;;;;4.30;1.30;;;;;;;16.45;30.98;99905.72;1087398;54;20041;-79
2022/04/11 11:15:31;;;;;;;3.78;1.40;;;;;;;16.35;30.73;99897.91;1087434;54;20050;-79
2022/04/11 11:17:02;;;;;;;4.97;1.50;;;;;;;16.29;30.83;99899.50;1088970;46;20072;-79
2022/04/11 11:18:04;;;;;;;5.13;1.40;;;;;;;16.28;31.18;99894.28;1087786;54;20038;-79
2022/04/11 11:19:18;;;;;;;3.00;1.30;;;;;;;16.26;31.08;99897.16;1087135;54;20041;-78
2022/04/11 11:20:22;;;;;;;3.20;1.15;;;;;;;16.30;31.25;99889.53;1087765;54;20045;-80
2022/04/11 11:22:01;;;;;;;4.85;1.70;;;;;;;16.15;30.90;99895.75;1087816;54;20035;-80